Startpagina
METAR-TAF:

METAR-TAF

Vliegvelden :

Luchthaven Košice

Košice, Slowakije

breedte: 48-39-47N, lengte: 021-14-28E, hoogte: 232 m

Actueel weer

Dit bericht is 12 minuten geleden gemaakt, om 09:30 UTC
Wind 5 kt uit het zuiden, variërend tussen het zuidoosten en het zuidzuidwesten
Temperatuur 25°C
Vochtigheid 54%
Druk 1016 hPa
Zicht 10 km of meer
geen wolken onder 1500 m en geen cumulonimbus

METAR: LZKZ 250930Z 17005KT 140V200 CAVOK 25/15 Q1016 NOSIG

Tijdstip: 11:42 (09:42 UTC)

Verwachting

Dit bericht is 4 uur en het 42 minuten geleden gemaakt, om 05:00 UTC
Verwachting geldig van 25 om 06 UTC tot 26 om 06 UTC
Wind 6 kt uit het noordnoordoosten
Zicht 10 km of meer
geen wolken onder 1500 m en geen cumulonimbus
Wijzigt naar
van 25 om 08 UTC tot 25 om 10 UTC
Wind 8 kt uit het zuiden
Zicht 10 km of meer
Weinig wolken op 4000 ft

TAF: LZKZ 250500Z 2506/2606 02006KT CAVOK BECMG 2508/2510 19008KT 9999 FEW040

Waarnemingen en weersverwachtingen van meer dan 4000 vliegvelden (METAR en TAF).

De beschikbare stations zijn de gele en rode punten op de kaart.

Ga met uw muis naar het station om de naam te zien.

Klik dan om waarnemingen en weersverwachtingen te zien.

kaart wijzigen: klik op de groene knoppen met een zwart kruis om in te zoomen, op de groene knop met een streepje om uit te zoomen of op de groene pijlen voor aangrenzende kaarten.


METAR-TAF: